Terminal Aerodrome Forecast
Issued by NWS Los Angeles, CA

Home | Current Version | Previous Version | Text Only | Print | Product List | Glossary On
Versions: 1 2 3 4 5 6 7 8 9 10 11 12 13 14 15 16 17 18 19 20 21
000
FTUS46 KLOX 180500 RRA
TAFSMX
TAF
KSMX 180542Z 1806/1906 VRB03KT P6SM OVC009
     FM181800 30007KT P6SM BKN020
     FM182100 30015KT P6SM BKN200
     FM190300 30006KT P6SM BKN025=

USA.gov is the U.S. government's official web portal to all federal, state and local government web resources and services.